createdAt,value
2023-10-23T00:01:40.795Z,88.06
2023-10-23T00:04:08.437Z,88.09
2023-10-23T00:06:35.517Z,88.30
2023-10-23T00:09:01.988Z,88.44
2023-10-23T00:11:30.597Z,87.90
2023-10-23T00:13:57.911Z,87.55
2023-10-23T00:16:24.574Z,87.97
2023-10-23T00:18:52.591Z,87.62
2023-10-23T00:21:19.210Z,87.75
2023-10-23T00:23:45.760Z,87.36
2023-10-23T00:26:12.214Z,86.97
2023-10-23T00:28:39.138Z,87.12
2023-10-23T00:31:05.650Z,86.99
2023-10-23T00:33:32.973Z,86.49
2023-10-23T00:36:00.474Z,87.21
2023-10-23T00:38:29.784Z,87.06
2023-10-23T00:40:56.671Z,86.93
2023-10-23T00:43:25.392Z,87.01
2023-10-23T00:45:56.322Z,86.60
2023-10-23T00:48:24.400Z,86.09
2023-10-23T00:50:52.848Z,86.03
2023-10-23T00:53:23.728Z,86.08
2023-10-23T00:55:53.162Z,86.19
2023-10-23T00:58:20.084Z,86.09
2023-10-23T01:00:47.882Z,86.30
2023-10-23T01:03:15.192Z,86.21
2023-10-23T01:05:41.781Z,86.36
2023-10-23T01:08:08.892Z,86.60
2023-10-23T01:10:35.606Z,86.57
2023-10-23T01:13:08.009Z,85.96
2023-10-23T01:15:35.659Z,85.45
2023-10-23T01:18:03.529Z,85.73
2023-10-23T01:20:31.511Z,85.44
2023-10-23T01:22:58.989Z,85.52
2023-10-23T01:25:26.497Z,85.56
2023-10-23T01:27:53.319Z,85.47
2023-10-23T01:30:20.192Z,84.97
2023-10-23T01:32:46.635Z,84.88
2023-10-23T01:35:13.566Z,84.86
2023-10-23T01:37:41.439Z,83.48
2023-10-23T01:42:54.943Z,82.74
2023-10-23T01:45:21.530Z,82.66
2023-10-23T01:47:48.751Z,82.33
2023-10-23T01:50:15.401Z,82.44
2023-10-23T01:52:43.449Z,82.22
2023-10-23T01:55:10.109Z,82.37
2023-10-23T01:57:37.108Z,83.10
2023-10-23T02:00:07.897Z,82.81
2023-10-23T02:02:35.146Z,82.80
2023-10-23T02:05:01.774Z,83.26
2023-10-23T02:07:28.901Z,83.22
2023-10-23T02:09:58.148Z,83.65
2023-10-23T02:12:25.420Z,83.99
2023-10-23T02:14:54.350Z,84.76
2023-10-23T02:17:21.385Z,84.92
2023-10-23T02:19:49.417Z,85.36
2023-10-23T02:22:17.512Z,85.66
2023-10-23T02:24:44.500Z,86.02
2023-10-23T02:27:11.069Z,86.14
2023-10-23T02:29:37.564Z,85.82
2023-10-23T02:32:05.145Z,86.19
2023-10-23T02:34:31.614Z,86.46
2023-10-23T02:36:58.585Z,86.69
2023-10-23T02:41:58.949Z,87.12
2023-10-23T02:44:26.996Z,87.27
2023-10-23T02:46:54.219Z,87.75
2023-10-23T02:49:20.808Z,87.98
2023-10-23T02:51:48.032Z,88.26
2023-10-23T02:54:15.349Z,88.04
2023-10-23T02:56:41.806Z,87.88
2023-10-23T02:59:08.814Z,87.37
2023-10-23T03:01:35.374Z,87.31
2023-10-23T03:04:03.022Z,87.13
2023-10-23T03:06:29.617Z,86.84
2023-10-23T03:08:56.162Z,86.85
2023-10-23T03:11:23.425Z,87.18
2023-10-23T03:13:49.952Z,87.16
2023-10-23T03:16:17.082Z,87.63
2023-10-23T03:18:43.848Z,87.97
2023-10-23T03:21:10.417Z,87.82
2023-10-23T03:23:37.948Z,87.69
2023-10-23T03:26:04.502Z,87.97
2023-10-23T03:28:31.467Z,87.88
2023-10-23T03:31:01.418Z,87.59
2023-10-23T03:33:27.957Z,87.94
2023-10-23T03:35:55.101Z,88.01
2023-10-23T03:38:21.551Z,89.08
2023-10-23T03:40:58.444Z,88.79
2023-10-23T03:43:25.148Z,89.41
2023-10-23T03:45:51.779Z,90.65
2023-10-23T03:48:18.898Z,89.11
2023-10-23T03:50:48.240Z,88.76
2023-10-23T03:53:15.406Z,88.40
2023-10-23T03:55:42.222Z,88.47
2023-10-23T03:58:08.793Z,88.00
2023-10-23T04:00:35.923Z,87.25
2023-10-23T04:03:02.461Z,86.47
2023-10-23T04:05:29.438Z,86.16
2023-10-23T04:07:55.882Z,85.54
2023-10-23T04:10:22.455Z,85.27
2023-10-23T04:12:49.331Z,85.02
2023-10-23T04:17:52.188Z,83.36
2023-10-23T04:20:18.778Z,82.79
2023-10-23T04:22:45.799Z,83.75
2023-10-23T04:25:12.369Z,84.13
2023-10-23T04:27:38.851Z,84.47
2023-10-23T04:30:06.105Z,84.89
2023-10-23T04:32:32.713Z,84.05
2023-10-23T04:35:00.243Z,83.68
2023-10-23T04:40:02.519Z,84.72
2023-10-23T04:42:29.100Z,85.51
2023-10-23T04:44:55.650Z,84.60
2023-10-23T04:47:22.128Z,84.49
2023-10-23T04:49:49.210Z,84.41
2023-10-23T04:52:16.342Z,83.95
2023-10-23T04:54:42.857Z,84.58
2023-10-23T04:57:09.763Z,84.58
2023-10-23T04:59:37.005Z,84.84
2023-10-23T05:02:04.254Z,84.52
2023-10-23T05:04:32.054Z,82.82
2023-10-23T05:06:59.242Z,82.53
2023-10-23T05:09:25.955Z,82.32
2023-10-23T05:11:52.425Z,82.14
2023-10-23T05:15:01.337Z,82.15
2023-10-23T05:20:07.280Z,81.25
2023-10-23T05:22:33.763Z,80.80
2023-10-23T05:25:00.384Z,80.70
2023-10-23T05:27:28.671Z,80.41
2023-10-23T05:29:56.029Z,80.33
2023-10-23T05:32:23.372Z,80.27
2023-10-23T05:34:49.886Z,79.86
2023-10-23T05:37:16.949Z,79.32
2023-10-23T05:39:43.423Z,79.90
2023-10-23T05:42:10.664Z,80.15
2023-10-23T05:44:37.210Z,80.05
2023-10-23T05:47:04.689Z,80.63
2023-10-23T05:49:31.142Z,81.01
2023-10-23T05:51:57.701Z,81.65
2023-10-23T05:54:24.828Z,82.25
2023-10-23T05:56:51.258Z,83.30
2023-10-23T05:59:17.754Z,84.04
2023-10-23T06:01:44.242Z,85.37
2023-10-23T06:04:10.838Z,85.97
2023-10-23T06:06:37.504Z,86.44
2023-10-23T06:09:05.500Z,86.44
2023-10-23T06:11:32.128Z,87.45
2023-10-23T06:13:59.227Z,86.25
2023-10-23T06:16:25.781Z,85.87
2023-10-23T06:21:28.212Z,85.02
2023-10-23T06:23:54.748Z,85.63
2023-10-23T06:26:21.816Z,85.97
2023-10-23T06:28:48.250Z,86.77
2023-10-23T06:31:15.293Z,86.99
2023-10-23T06:33:43.884Z,86.56
2023-10-23T06:36:11.570Z,86.58
2023-10-23T06:38:38.727Z,86.41
2023-10-23T06:41:06.691Z,84.99
2023-10-23T06:43:34.367Z,84.06
2023-10-23T06:46:02.752Z,84.25
2023-10-23T06:48:31.544Z,82.76
2023-10-23T06:50:58.465Z,81.21
2023-10-23T06:53:25.052Z,80.61
2023-10-23T06:55:53.633Z,78.74
2023-10-23T06:58:21.799Z,78.27
2023-10-23T07:00:49.112Z,77.49
2023-10-23T07:03:16.288Z,76.49
2023-10-23T07:05:43.339Z,76.24
2023-10-23T07:08:10.095Z,75.85
2023-10-23T07:10:38.149Z,75.67
2023-10-23T07:13:15.109Z,75.16
2023-10-23T07:15:48.829Z,74.92
2023-10-23T07:18:15.290Z,73.50
2023-10-23T07:20:41.828Z,71.95
2023-10-23T07:23:08.279Z,71.62
2023-10-23T07:25:34.748Z,71.65
2023-10-23T07:28:01.615Z,70.94
2023-10-23T07:30:28.106Z,70.13
2023-10-23T07:32:55.344Z,70.08
2023-10-23T07:35:21.834Z,70.31
2023-10-23T07:37:48.347Z,67.92
2023-10-23T07:40:15.050Z,68.74
2023-10-23T07:42:42.157Z,65.46
2023-10-23T07:45:09.795Z,65.39
2023-10-23T07:47:36.462Z,66.29
2023-10-23T07:50:05.829Z,65.48
2023-10-23T07:52:33.507Z,64.72
2023-10-23T07:55:01.643Z,65.52
2023-10-23T07:57:30.934Z,63.79
2023-10-23T07:59:57.959Z,64.36
2023-10-23T08:02:24.550Z,64.59
2023-10-23T08:04:51.876Z,64.56
2023-10-23T08:07:18.409Z,64.34
2023-10-23T08:09:45.663Z,63.94
2023-10-23T08:12:14.365Z,62.84
2023-10-23T08:14:41.218Z,64.71
2023-10-23T08:17:08.413Z,63.43
2023-10-23T08:19:35.103Z,63.15
2023-10-23T08:22:02.275Z,63.58
2023-10-23T08:24:29.145Z,63.66
2023-10-23T08:26:56.146Z,64.22
2023-10-23T08:29:23.105Z,63.18
2023-10-23T08:31:50.368Z,62.42
2023-10-23T08:34:22.197Z,62.46
2023-10-23T08:36:49.424Z,62.71
2023-10-23T08:39:16.548Z,62.79
2023-10-23T08:41:43.184Z,63.19
2023-10-23T08:44:10.596Z,62.07
2023-10-23T08:46:38.344Z,61.29
2023-10-23T08:49:06.373Z,61.09
2023-10-23T08:51:33.049Z,62.74
2023-10-23T08:56:46.214Z,63.77
2023-10-23T08:59:16.900Z,63.35
2023-10-23T09:01:43.697Z,63.66
2023-10-23T09:04:12.293Z,63.51
2023-10-23T09:06:40.228Z,62.30
2023-10-23T09:09:07.510Z,61.28
2023-10-23T09:11:49.976Z,61.32
2023-10-23T09:14:32.167Z,62.70
2023-10-23T09:17:01.054Z,63.28
2023-10-23T09:19:37.583Z,59.92
2023-10-23T09:22:05.859Z,62.16
2023-10-23T09:24:32.652Z,63.24
2023-10-23T09:26:59.275Z,63.27
2023-10-23T09:29:27.941Z,63.10
2023-10-23T09:31:57.003Z,63.80
2023-10-23T09:34:24.311Z,63.48
2023-10-23T09:36:52.760Z,62.58
2023-10-23T09:39:21.672Z,62.52
2023-10-23T09:41:48.570Z,61.84
2023-10-23T09:44:16.192Z,64.18
2023-10-23T09:46:46.256Z,61.67
2023-10-23T09:49:12.948Z,61.10
2023-10-23T09:51:43.829Z,63.35
2023-10-23T09:54:20.986Z,63.07
2023-10-23T09:56:50.103Z,60.85
2023-10-23T09:59:19.134Z,60.12
2023-10-23T10:01:51.663Z,61.17
2023-10-23T10:04:41.209Z,58.76
2023-10-23T10:07:18.967Z,58.11
2023-10-23T10:09:45.819Z,58.37
2023-10-23T10:12:12.241Z,57.99
2023-10-23T10:14:40.506Z,58.37
2023-10-23T10:17:08.097Z,58.37
2023-10-23T10:19:36.808Z,59.44
2023-10-23T10:22:12.558Z,59.26
2023-10-23T10:24:40.427Z,59.11
2023-10-23T10:27:07.866Z,60.73
2023-10-23T10:29:35.007Z,60.84
2023-10-23T10:32:10.870Z,60.00
2023-10-23T10:34:39.967Z,61.14
2023-10-23T10:37:19.147Z,62.57
2023-10-23T10:39:54.738Z,61.63
2023-10-23T10:42:26.688Z,62.51
2023-10-23T10:45:04.084Z,63.97
2023-10-23T10:47:39.838Z,65.14
2023-10-23T10:50:07.600Z,66.15
2023-10-23T10:52:38.327Z,66.48
2023-10-23T10:55:06.944Z,65.00
2023-10-23T11:00:24.689Z,64.30
2023-10-23T11:02:52.306Z,65.56
2023-10-23T11:05:19.825Z,65.61
2023-10-23T11:07:49.236Z,64.91
2023-10-23T11:10:15.777Z,63.77
2023-10-23T11:12:42.875Z,65.22
2023-10-23T11:15:09.817Z,63.08
2023-10-23T11:17:37.110Z,61.05
2023-10-23T11:20:12.110Z,60.58
2023-10-23T11:22:42.464Z,57.45
2023-10-23T11:25:10.393Z,57.41
2023-10-23T11:27:39.823Z,55.84
2023-10-23T11:32:42.065Z,52.42
2023-10-23T11:35:09.481Z,52.93
2023-10-23T11:37:40.392Z,53.36
2023-10-23T11:40:09.674Z,51.38
2023-10-23T11:45:25.017Z,50.58
2023-10-23T11:47:56.467Z,49.73
2023-10-23T11:50:24.592Z,49.53
2023-10-23T11:52:51.104Z,49.29
2023-10-23T11:55:19.954Z,49.96
2023-10-23T11:57:50.179Z,48.98
2023-10-23T12:00:18.207Z,49.75
2023-10-23T12:02:47.526Z,50.05
2023-10-23T12:05:18.103Z,47.22
2023-10-23T12:07:49.338Z,47.69
2023-10-23T12:10:18.125Z,47.30
2023-10-23T12:12:46.452Z,47.01
2023-10-23T12:15:15.985Z,49.51
2023-10-23T12:17:43.382Z,49.56
2023-10-23T12:20:13.381Z,51.37
2023-10-23T12:22:42.536Z,51.36
2023-10-23T12:25:10.755Z,52.06
2023-10-23T12:27:38.304Z,51.32
2023-10-23T12:30:09.271Z,52.67
2023-10-23T12:33:14.950Z,50.33
2023-10-23T12:35:23.683Z,51.18
2023-10-23T12:37:50.361Z,50.15
2023-10-23T12:40:17.689Z,49.23
2023-10-23T12:42:44.296Z,50.56
2023-10-23T12:45:11.004Z,50.62
2023-10-23T12:47:38.092Z,50.63
2023-10-23T12:50:05.385Z,48.70
2023-10-23T12:52:33.211Z,50.90
2023-10-23T12:55:00.202Z,52.86
2023-10-23T12:57:27.448Z,53.20
2023-10-23T12:59:54.688Z,53.79
2023-10-23T13:02:21.768Z,54.04
2023-10-23T13:04:49.874Z,54.99
2023-10-23T13:07:17.234Z,55.86
2023-10-23T13:09:43.879Z,56.78
2023-10-23T13:12:11.014Z,57.24
2023-10-23T13:14:37.616Z,58.05
2023-10-23T13:17:04.792Z,58.26
2023-10-23T13:19:31.475Z,58.43
2023-10-23T13:21:58.541Z,58.27
2023-10-23T13:24:25.124Z,55.04
2023-10-23T13:26:52.190Z,52.43
2023-10-23T13:29:18.687Z,49.38
2023-10-23T13:31:50.334Z,47.76
2023-10-23T13:36:53.399Z,48.81
2023-10-23T13:39:20.346Z,49.58
2023-10-23T13:41:47.057Z,51.01
2023-10-23T13:44:14.060Z,51.00
2023-10-23T13:46:43.098Z,51.64
2023-10-23T13:49:10.801Z,51.58
2023-10-23T13:51:37.716Z,50.75
2023-10-23T13:54:05.151Z,50.99
2023-10-23T13:56:31.645Z,50.57
2023-10-23T13:58:58.767Z,49.12
2023-10-23T14:01:25.433Z,51.49
2023-10-23T14:03:53.877Z,53.08
2023-10-23T14:06:20.651Z,53.49
2023-10-23T14:09:39.715Z,53.49
2023-10-23T14:12:00.965Z,52.83
2023-10-23T14:14:21.142Z,54.54
2023-10-23T14:16:47.755Z,55.07
2023-10-23T14:19:22.615Z,55.27
2023-10-23T14:21:56.484Z,55.32
2023-10-23T14:24:25.992Z,53.91
2023-10-23T14:26:52.530Z,57.61
2023-10-23T14:29:19.814Z,59.57
2023-10-23T14:31:46.834Z,61.08
2023-10-23T14:34:14.882Z,62.42
2023-10-23T14:36:41.510Z,62.68
2023-10-23T14:39:08.477Z,62.23
2023-10-23T14:41:35.562Z,62.93
2023-10-23T14:44:02.341Z,63.04
2023-10-23T14:46:29.658Z,63.79
2023-10-23T14:48:56.395Z,64.53
2023-10-23T14:51:23.946Z,65.71
2023-10-23T14:53:53.439Z,66.65
2023-10-23T14:56:21.118Z,66.82
2023-10-23T15:01:23.618Z,68.32
2023-10-23T15:03:50.588Z,68.86
2023-10-23T15:08:53.796Z,69.51
2023-10-23T15:11:22.780Z,70.39
2023-10-23T15:13:51.232Z,71.39
2023-10-23T15:16:18.067Z,72.15
2023-10-23T15:18:44.992Z,73.09
2023-10-23T15:21:12.206Z,73.77
2023-10-23T15:23:39.416Z,74.99
2023-10-23T15:26:06.080Z,75.31
2023-10-23T15:28:36.369Z,75.63
2023-10-23T15:31:06.555Z,77.04
2023-10-23T15:33:36.017Z,78.09
2023-10-23T15:36:03.403Z,78.51
2023-10-23T15:38:31.087Z,80.13
2023-10-23T15:41:12.216Z,81.24
2023-10-23T15:43:40.350Z,82.27
2023-10-23T15:46:13.069Z,81.92
2023-10-23T15:48:40.646Z,80.75
2023-10-23T15:51:07.891Z,80.98
2023-10-23T15:53:34.794Z,81.60
2023-10-23T15:56:02.277Z,82.52
2023-10-23T15:58:29.665Z,83.87
2023-10-23T16:00:58.277Z,84.91
2023-10-23T16:03:25.125Z,85.84
2023-10-23T16:05:52.479Z,87.34
2023-10-23T16:08:19.095Z,88.24
2023-10-23T16:10:54.001Z,89.47
2023-10-23T16:13:21.182Z,89.33
2023-10-23T16:15:48.132Z,90.09
2023-10-23T16:18:17.443Z,90.48
2023-10-23T16:20:44.666Z,90.15
2023-10-23T16:23:12.621Z,90.35
2023-10-23T16:25:43.240Z,90.79
2023-10-23T16:28:12.000Z,91.39
2023-10-23T16:30:39.479Z,91.95
2023-10-23T16:33:06.088Z,91.13
2023-10-23T16:35:38.292Z,91.54
2023-10-23T16:38:04.904Z,91.48
2023-10-23T16:40:35.060Z,92.37
2023-10-23T16:43:02.174Z,91.07
2023-10-23T16:45:30.551Z,92.98
2023-10-23T16:47:57.278Z,95.03
2023-10-23T16:50:25.470Z,95.92
2023-10-23T16:52:52.545Z,96.35
2023-10-23T16:55:20.111Z,95.82
2023-10-23T16:57:46.664Z,96.38
2023-10-23T17:00:15.948Z,95.99
2023-10-23T17:02:42.551Z,95.24
2023-10-23T17:05:13.054Z,96.40
2023-10-23T17:10:28.200Z,95.43
2023-10-23T17:12:54.737Z,96.89
2023-10-23T17:15:22.396Z,97.98
2023-10-23T17:17:49.324Z,98.30
2023-10-23T17:20:17.335Z,98.46
2023-10-23T17:22:46.911Z,98.38
2023-10-23T17:25:13.502Z,98.01
2023-10-23T17:27:40.569Z,93.45
2023-10-23T17:30:07.289Z,91.86
2023-10-23T17:32:34.568Z,90.55
2023-10-23T17:35:01.214Z,90.12
2023-10-23T17:37:28.364Z,89.84
2023-10-23T17:39:54.943Z,89.17
2023-10-23T17:42:22.107Z,89.75
2023-10-23T17:44:49.049Z,89.97
2023-10-23T17:47:15.534Z,89.96
2023-10-23T17:49:42.925Z,90.38
2023-10-23T17:52:10.298Z,90.69
2023-10-23T17:54:38.787Z,90.70
2023-10-23T17:57:05.496Z,89.87
2023-10-23T17:59:34.166Z,89.21
2023-10-23T18:02:01.868Z,89.40
2023-10-23T18:04:28.890Z,89.04
2023-10-23T18:06:59.338Z,88.51
2023-10-23T18:09:26.431Z,88.54
2023-10-23T18:11:52.861Z,89.59
2023-10-23T18:14:20.037Z,89.51
2023-10-23T18:16:46.646Z,89.52
2023-10-23T18:19:16.172Z,90.04
2023-10-23T18:21:44.176Z,90.45
2023-10-23T18:24:10.777Z,90.72
2023-10-23T18:26:37.709Z,90.78
2023-10-23T18:29:04.206Z,90.01
2023-10-23T18:31:32.232Z,90.25
2023-10-23T18:33:58.755Z,90.34
2023-10-23T18:36:26.626Z,90.60
2023-10-23T18:38:53.222Z,90.68
2023-10-23T18:41:27.930Z,90.99
2023-10-23T18:43:57.644Z,92.32
2023-10-23T18:46:24.850Z,94.24
2023-10-23T18:48:51.379Z,95.36
2023-10-23T18:51:18.995Z,95.93
2023-10-23T18:53:45.508Z,96.07
2023-10-23T18:56:12.419Z,96.67
2023-10-23T18:58:39.638Z,96.47
2023-10-23T19:01:09.650Z,96.54
2023-10-23T19:03:38.985Z,96.63
2023-10-23T19:06:06.516Z,96.77
2023-10-23T19:08:33.764Z,97.09
2023-10-23T19:11:00.382Z,96.47
2023-10-23T19:13:27.594Z,95.20
2023-10-23T19:16:01.330Z,96.31
2023-10-23T19:18:30.997Z,96.22
2023-10-23T19:21:02.107Z,94.91
2023-10-23T19:23:29.354Z,95.60
2023-10-23T19:25:56.674Z,95.98
2023-10-23T19:28:24.317Z,96.23
2023-10-23T19:30:52.040Z,94.76
2023-10-23T19:33:18.989Z,95.20
2023-10-23T19:35:46.423Z,95.43
2023-10-23T19:38:13.334Z,95.61
2023-10-23T19:40:51.213Z,95.75
2023-10-23T19:43:20.712Z,96.30
2023-10-23T19:45:48.145Z,96.90
2023-10-23T19:48:15.158Z,96.66
2023-10-23T19:50:44.916Z,97.87
2023-10-23T19:53:14.266Z,98.73
2023-10-23T19:55:46.746Z,99.34
2023-10-23T19:58:15.298Z,100.00
2023-10-23T20:00:41.824Z,99.85
2023-10-23T20:03:09.009Z,100.00
2023-10-23T20:05:35.524Z,100.00
2023-10-23T20:08:02.846Z,100.00
2023-10-23T20:10:30.104Z,100.00
2023-10-23T20:12:58.932Z,99.86
2023-10-23T20:15:30.422Z,98.67
2023-10-23T20:17:58.030Z,98.18
2023-10-23T20:20:25.017Z,97.22
2023-10-23T20:22:52.229Z,96.25
2023-10-23T20:25:19.350Z,95.46
2023-10-23T20:27:46.788Z,95.49
2023-10-23T20:30:13.945Z,95.59
2023-10-23T20:32:41.079Z,95.38
2023-10-23T20:35:08.476Z,95.45
2023-10-23T20:37:35.730Z,94.35
2023-10-23T20:40:05.080Z,94.65
2023-10-23T20:42:33.800Z,94.97
2023-10-23T20:47:42.250Z,94.58
2023-10-23T20:50:09.883Z,92.87
2023-10-23T20:52:36.667Z,92.08
2023-10-23T20:55:06.941Z,92.47
2023-10-23T20:57:33.438Z,93.79
2023-10-23T21:00:00.692Z,95.52
2023-10-23T21:02:27.447Z,97.70
2023-10-23T21:04:54.562Z,98.54
2023-10-23T21:07:20.977Z,96.44
2023-10-23T21:09:48.011Z,95.06
2023-10-23T21:12:15.121Z,93.48
2023-10-23T21:14:48.487Z,93.05
2023-10-23T21:17:16.584Z,92.76
2023-10-23T21:19:43.452Z,90.78
2023-10-23T21:22:10.446Z,89.48
2023-10-23T21:24:36.997Z,90.23
2023-10-23T21:27:05.411Z,90.29
2023-10-23T21:29:32.367Z,91.42
2023-10-23T21:32:01.231Z,91.96
2023-10-23T21:34:27.937Z,92.44
2023-10-23T21:36:55.080Z,92.93
2023-10-23T21:39:22.206Z,93.08
2023-10-23T21:41:48.790Z,93.13
2023-10-23T21:44:16.126Z,92.70
2023-10-23T21:46:42.760Z,92.06
2023-10-23T21:49:11.823Z,91.75
2023-10-23T21:51:39.099Z,90.77
2023-10-23T21:54:06.869Z,89.85
2023-10-23T21:57:19.644Z,89.30
2023-10-23T21:59:22.960Z,88.14
2023-10-23T22:01:53.427Z,87.49
2023-10-23T22:04:21.369Z,87.01
2023-10-23T22:06:48.159Z,87.16
2023-10-23T22:09:15.577Z,87.10
2023-10-23T22:11:42.471Z,87.63
2023-10-23T22:14:09.357Z,86.77
2023-10-23T22:16:36.448Z,86.42
2023-10-23T22:19:03.638Z,84.71
2023-10-23T22:21:30.534Z,83.59
2023-10-23T22:23:57.023Z,82.96
2023-10-23T22:26:24.157Z,83.20
2023-10-23T22:28:51.832Z,81.40
2023-10-23T22:31:18.777Z,81.18
2023-10-23T22:33:45.279Z,81.62
2023-10-23T22:36:12.408Z,80.96
2023-10-23T22:38:38.916Z,80.76
2023-10-23T22:41:05.495Z,80.08
2023-10-23T22:43:32.738Z,79.91
2023-10-23T22:46:03.731Z,79.22
2023-10-23T22:48:31.987Z,78.50
2023-10-23T22:50:58.987Z,77.78
2023-10-23T22:53:26.037Z,77.97
2023-10-23T22:55:55.396Z,78.44
2023-10-23T22:58:31.666Z,80.44
2023-10-23T23:00:59.816Z,81.01
2023-10-23T23:03:27.835Z,82.15
2023-10-23T23:06:00.407Z,79.75
2023-10-23T23:08:31.122Z,78.36
2023-10-23T23:10:58.083Z,78.42
2023-10-23T23:13:25.213Z,79.02
2023-10-23T23:15:52.819Z,79.10
2023-10-23T23:18:21.476Z,79.71
2023-10-23T23:20:51.322Z,79.63
2023-10-23T23:23:17.823Z,79.43
2023-10-23T23:25:45.112Z,79.04
2023-10-23T23:28:11.694Z,79.15
2023-10-23T23:30:38.622Z,79.02
2023-10-23T23:33:05.108Z,78.97
2023-10-23T23:35:32.030Z,78.62
2023-10-23T23:37:58.938Z,78.92
2023-10-23T23:40:26.164Z,78.64
2023-10-23T23:42:52.647Z,79.12
2023-10-23T23:45:19.697Z,78.98
2023-10-23T23:47:46.219Z,79.69
2023-10-23T23:50:12.656Z,80.92
2023-10-23T23:52:39.788Z,80.65
2023-10-23T23:55:06.645Z,80.85
2023-10-23T23:57:35.610Z,81.26
